createdAt,value
2023-02-15T00:02:10.298Z,9.27
2023-02-15T00:04:48.678Z,8.77
2023-02-15T00:07:20.735Z,8.93
2023-02-15T00:09:51.569Z,8.60
2023-02-15T00:12:21.437Z,9.00
2023-02-15T00:14:51.375Z,8.33
2023-02-15T00:17:20.862Z,9.20
2023-02-15T00:19:50.975Z,9.57
2023-02-15T00:22:20.808Z,7.77
2023-02-15T00:24:51.126Z,7.53
2023-02-15T00:27:20.948Z,10.03
2023-02-15T00:29:50.889Z,8.77
2023-02-15T00:32:20.510Z,9.03
2023-02-15T00:34:50.359Z,9.10
2023-02-15T00:37:20.155Z,9.10
2023-02-15T00:39:50.244Z,8.67
2023-02-15T00:42:19.745Z,8.47
2023-02-15T00:44:49.582Z,9.53
2023-02-15T00:47:19.188Z,10.80
2023-02-15T00:49:49.305Z,10.37
2023-02-15T00:52:18.804Z,8.83
2023-02-15T00:54:48.652Z,9.40
2023-02-15T00:57:18.489Z,8.60
2023-02-15T00:59:48.356Z,8.90
2023-02-15T01:02:18.376Z,8.20
2023-02-15T01:04:49.118Z,9.55
2023-02-15T01:07:41.778Z,7.23
2023-02-15T01:10:11.738Z,9.60
2023-02-15T01:12:41.590Z,10.17
2023-02-15T01:15:11.166Z,8.83
2023-02-15T01:17:40.994Z,9.40
2023-02-15T01:20:11.082Z,8.87
2023-02-15T01:22:40.911Z,9.27
2023-02-15T01:25:10.446Z,10.10
2023-02-15T01:27:40.346Z,9.23
2023-02-15T01:30:10.540Z,9.73
2023-02-15T01:32:40.097Z,8.60
2023-02-15T01:35:13.695Z,10.00
2023-02-15T01:37:43.924Z,10.35
2023-02-15T01:40:18.972Z,10.25
2023-02-15T01:42:59.095Z,9.07
2023-02-15T01:45:33.925Z,8.83
2023-02-15T01:48:23.460Z,9.17
2023-02-15T01:50:59.670Z,8.77
2023-02-15T01:53:35.906Z,9.47
2023-02-15T01:56:12.179Z,10.90
2023-02-15T01:58:42.976Z,10.73
2023-02-15T02:01:13.012Z,8.80
2023-02-15T02:04:04.093Z,9.23
2023-02-15T02:06:35.887Z,10.25
2023-02-15T02:09:06.596Z,8.38
2023-02-15T02:11:36.865Z,10.43
2023-02-15T02:14:06.871Z,9.43
2023-02-15T02:16:41.531Z,9.95
2023-02-15T02:19:24.989Z,11.43
2023-02-15T02:22:15.742Z,10.70
2023-02-15T02:25:10.441Z,10.73
2023-02-15T02:28:08.854Z,11.10
2023-02-15T02:31:05.808Z,11.60
2023-02-15T02:33:47.390Z,11.33
2023-02-15T02:36:31.842Z,9.73
2023-02-15T02:39:16.607Z,11.07
2023-02-15T02:41:55.641Z,10.00
2023-02-15T02:44:28.502Z,10.37
2023-02-15T02:47:09.886Z,9.43
2023-02-15T02:49:42.437Z,11.13
2023-02-15T02:52:41.594Z,9.90
2023-02-15T02:55:19.760Z,9.96
2023-02-15T02:58:04.629Z,8.73
2023-02-15T03:00:37.190Z,9.37
2023-02-15T03:03:10.312Z,10.03
2023-02-15T03:05:42.928Z,9.93
2023-02-15T03:08:16.866Z,9.70
2023-02-15T03:10:46.942Z,9.90
2023-02-15T03:13:17.160Z,9.13
2023-02-15T03:18:41.750Z,9.30
2023-02-15T03:21:16.001Z,8.10
2023-02-15T03:23:46.366Z,7.70
2023-02-15T03:26:16.199Z,9.00
2023-02-15T03:28:49.764Z,8.15
2023-02-15T03:31:22.623Z,8.33
2023-02-15T03:33:55.323Z,8.80
2023-02-15T03:36:30.585Z,9.33
2023-02-15T03:39:24.449Z,8.57
2023-02-15T03:42:02.691Z,8.70
2023-02-15T03:44:34.356Z,8.73
2023-02-15T03:47:10.068Z,8.40
2023-02-15T03:50:03.835Z,9.97
2023-02-15T03:52:35.176Z,8.97
2023-02-15T03:55:05.062Z,7.62
2023-02-15T03:57:55.363Z,8.67
2023-02-15T04:00:44.664Z,9.27
2023-02-15T04:03:23.351Z,10.15
2023-02-15T04:05:53.061Z,8.10
2023-02-15T04:08:24.690Z,10.83
2023-02-15T04:10:54.598Z,9.73
2023-02-15T04:13:26.533Z,9.90
2023-02-15T04:16:07.127Z,8.60
2023-02-15T04:18:59.714Z,9.60
2023-02-15T04:21:49.860Z,10.40
2023-02-15T04:24:37.449Z,9.33
2023-02-15T04:27:07.722Z,9.40
2023-02-15T04:29:37.284Z,10.33
2023-02-15T04:32:07.741Z,9.47
2023-02-15T04:34:37.676Z,9.98
2023-02-15T04:37:07.180Z,11.83
2023-02-15T04:39:36.676Z,8.63
2023-02-15T04:42:07.241Z,10.55
2023-02-15T04:44:36.957Z,11.27
2023-02-15T04:47:07.100Z,10.87
2023-02-15T04:49:36.569Z,9.83
2023-02-15T04:52:06.630Z,9.93
2023-02-15T04:54:36.119Z,10.93
2023-02-15T04:57:07.478Z,10.15
2023-02-15T04:59:37.085Z,11.07
2023-02-15T05:02:07.278Z,11.57
2023-02-15T05:04:36.843Z,11.00
2023-02-15T05:07:06.958Z,10.53
2023-02-15T05:09:36.452Z,11.33
2023-02-15T05:12:06.972Z,12.27
2023-02-15T05:14:36.483Z,11.93
2023-02-15T05:17:06.804Z,12.55
2023-02-15T05:19:36.400Z,11.07
2023-02-15T05:22:06.648Z,13.30
2023-02-15T05:24:53.983Z,10.97
2023-02-15T05:27:41.024Z,12.80
2023-02-15T05:30:12.839Z,12.17
2023-02-15T05:32:42.545Z,13.50
2023-02-15T05:35:15.783Z,11.50
2023-02-15T05:37:45.340Z,14.23
2023-02-15T05:40:14.871Z,13.17
2023-02-15T05:42:44.373Z,13.47
2023-02-15T05:45:14.211Z,13.88
2023-02-15T05:47:44.548Z,14.67
2023-02-15T05:50:14.196Z,13.77
2023-02-15T05:52:44.868Z,16.15
2023-02-15T05:55:14.534Z,14.93
2023-02-15T05:57:44.029Z,12.80
2023-02-15T06:00:14.879Z,14.30
2023-02-15T06:02:44.744Z,15.75
2023-02-15T06:05:14.804Z,14.83
2023-02-15T06:07:47.120Z,15.73
2023-02-15T06:10:17.142Z,13.77
2023-02-15T06:12:46.911Z,15.07
2023-02-15T06:15:16.584Z,13.57
2023-02-15T06:17:46.406Z,13.30
2023-02-15T06:20:16.042Z,12.90
2023-02-15T06:22:45.555Z,12.17
2023-02-15T06:25:15.275Z,13.47
2023-02-15T06:27:45.281Z,14.13
2023-02-15T06:30:15.602Z,12.90
2023-02-15T06:32:45.361Z,13.40
2023-02-15T06:35:15.193Z,12.83
2023-02-15T06:37:46.212Z,13.97
2023-02-15T06:40:16.501Z,11.83
2023-02-15T06:42:46.193Z,13.10
2023-02-15T06:45:15.852Z,12.57
2023-02-15T06:47:45.352Z,12.67
2023-02-15T06:50:14.885Z,13.60
2023-02-15T06:52:44.444Z,14.10
2023-02-15T06:55:14.332Z,15.70
2023-02-15T06:57:43.963Z,15.97
2023-02-15T07:00:14.450Z,14.77
2023-02-15T07:02:43.935Z,18.17
2023-02-15T07:05:13.907Z,16.00
2023-02-15T07:07:43.593Z,15.37
2023-02-15T07:10:13.120Z,14.90
2023-02-15T07:12:42.622Z,15.50
2023-02-15T07:15:15.438Z,13.60
2023-02-15T07:17:47.326Z,15.57
2023-02-15T07:20:20.310Z,14.40
2023-02-15T07:22:50.882Z,14.30
2023-02-15T07:25:20.523Z,14.07
2023-02-15T07:27:50.525Z,13.37
2023-02-15T07:30:20.214Z,14.13
2023-02-15T07:33:08.642Z,12.45
2023-02-15T07:35:38.475Z,14.03
2023-02-15T07:38:08.191Z,13.60
2023-02-15T07:40:38.010Z,14.07
2023-02-15T07:43:07.507Z,14.23
2023-02-15T07:45:37.433Z,13.97
2023-02-15T07:48:07.297Z,12.77
2023-02-15T07:50:37.708Z,14.78
2023-02-15T07:53:07.278Z,14.63
2023-02-15T07:55:37.183Z,14.17
2023-02-15T07:58:07.052Z,15.47
2023-02-15T08:00:38.388Z,13.43
2023-02-15T08:03:17.213Z,13.67
2023-02-15T08:05:47.643Z,12.85
2023-02-15T08:08:32.258Z,13.73
2023-02-15T08:11:22.922Z,12.50
2023-02-15T08:13:55.561Z,12.00
2023-02-15T08:16:30.609Z,9.95
2023-02-15T08:19:03.309Z,11.33
2023-02-15T08:21:34.285Z,12.67
2023-02-15T08:24:04.712Z,12.40
2023-02-15T08:26:34.728Z,11.73
2023-02-15T08:29:05.393Z,11.50
2023-02-15T08:31:36.548Z,10.73
2023-02-15T08:34:07.649Z,12.80
2023-02-15T08:36:37.499Z,11.97
2023-02-15T08:39:08.382Z,10.47
2023-02-15T08:41:39.836Z,11.12
2023-02-15T08:46:42.435Z,10.40
2023-02-15T08:49:15.438Z,11.97
2023-02-15T08:51:45.319Z,11.03
2023-02-15T08:54:17.177Z,13.10
2023-02-15T08:56:47.704Z,10.20
2023-02-15T08:59:20.218Z,10.27
2023-02-15T09:01:51.900Z,11.10
2023-02-15T09:04:23.587Z,10.07
2023-02-15T09:06:53.666Z,10.73
2023-02-15T09:09:23.766Z,11.07
2023-02-15T09:11:58.828Z,10.43
2023-02-15T09:14:26.733Z,10.45
2023-02-15T09:16:56.938Z,11.73
2023-02-15T09:19:27.340Z,10.63
2023-02-15T09:21:57.204Z,11.10
2023-02-15T09:24:27.381Z,10.23
2023-02-15T09:26:57.187Z,10.10
2023-02-15T09:29:27.016Z,11.07
2023-02-15T09:31:57.230Z,10.88
2023-02-15T09:34:27.147Z,10.60
2023-02-15T09:36:57.279Z,10.80
2023-02-15T09:39:29.100Z,11.77
2023-02-15T09:42:20.010Z,10.93
2023-02-15T09:45:05.112Z,10.25
2023-02-15T09:47:59.541Z,10.68
2023-02-15T09:50:48.199Z,11.50
2023-02-15T09:53:53.845Z,10.03
2023-02-15T09:56:57.156Z,9.33
2023-02-15T09:59:38.835Z,9.57
2023-02-15T10:02:26.042Z,10.57
2023-02-15T10:05:11.741Z,11.15
2023-02-15T10:07:47.533Z,10.32
2023-02-15T10:10:40.008Z,9.13
2023-02-15T10:13:30.922Z,10.83
2023-02-15T10:16:13.148Z,9.28
2023-02-15T10:18:48.692Z,9.93
2023-02-15T10:21:34.051Z,9.50
2023-02-15T10:24:16.008Z,9.55
2023-02-15T10:26:48.056Z,9.13
2023-02-15T10:29:38.584Z,10.60
2023-02-15T10:32:13.828Z,10.50
2023-02-15T10:34:47.033Z,9.73
2023-02-15T10:37:19.958Z,9.73
2023-02-15T10:39:55.505Z,10.93
2023-02-15T10:42:40.067Z,9.80
2023-02-15T10:45:13.160Z,9.30
2023-02-15T10:47:48.705Z,9.33
2023-02-15T10:50:33.520Z,9.85
2023-02-15T10:53:21.249Z,9.95
2023-02-15T10:56:17.327Z,9.40
2023-02-15T10:59:02.325Z,7.93
2023-02-15T11:01:42.145Z,8.93
2023-02-15T11:04:35.088Z,9.38
2023-02-15T11:07:17.842Z,9.58
2023-02-15T11:09:54.411Z,9.43
2023-02-15T11:12:27.028Z,8.38
2023-02-15T11:14:59.912Z,9.07
2023-02-15T11:17:41.794Z,9.50
2023-02-15T11:20:20.228Z,9.20
2023-02-15T11:22:52.110Z,8.53
2023-02-15T11:25:27.761Z,10.30
2023-02-15T11:27:58.267Z,9.08
2023-02-15T11:30:37.150Z,7.80
2023-02-15T11:33:07.678Z,9.67
2023-02-15T11:36:01.443Z,9.43
2023-02-15T11:38:35.984Z,10.30
2023-02-15T11:41:15.231Z,10.18
2023-02-15T11:44:02.698Z,10.63
2023-02-15T11:46:32.952Z,10.75
2023-02-15T11:49:03.878Z,10.93
2023-02-15T11:51:33.707Z,9.85
2023-02-15T11:54:05.443Z,9.17
2023-02-15T11:56:35.969Z,9.37
2023-02-15T11:59:10.264Z,9.36
2023-02-15T12:01:45.255Z,9.33
2023-02-15T12:04:30.302Z,9.30
2023-02-15T12:07:07.173Z,8.90
2023-02-15T12:10:06.007Z,8.73
2023-02-15T12:12:37.427Z,10.35
2023-02-15T12:15:09.424Z,11.08
2023-02-15T12:17:53.748Z,9.17
2023-02-15T12:20:29.514Z,10.80
2023-02-15T12:23:08.183Z,9.70
2023-02-15T12:25:56.847Z,10.37
2023-02-15T12:28:41.714Z,9.43
2023-02-15T12:31:26.448Z,10.03
2023-02-15T12:33:59.748Z,9.78
2023-02-15T12:36:33.066Z,10.30
2023-02-15T12:39:08.824Z,10.60
2023-02-15T12:41:40.861Z,9.97
2023-02-15T12:44:20.013Z,8.87
2023-02-15T12:47:06.808Z,10.45
2023-02-15T12:49:38.934Z,9.83
2023-02-15T12:52:18.687Z,9.53
2023-02-15T12:54:49.645Z,10.47
2023-02-15T12:57:28.213Z,9.77
2023-02-15T13:00:01.662Z,9.40
2023-02-15T13:02:34.532Z,9.73
2023-02-15T13:05:14.878Z,9.27
2023-02-15T13:07:53.734Z,9.40
2023-02-15T13:10:29.556Z,8.83
2023-02-15T13:13:00.499Z,8.70
2023-02-15T13:15:36.812Z,9.90
2023-02-15T13:18:09.336Z,10.03
2023-02-15T13:20:41.636Z,8.87
2023-02-15T13:23:17.167Z,9.26
2023-02-15T13:25:50.656Z,7.77
2023-02-15T13:28:24.611Z,8.50
2023-02-15T13:30:54.892Z,9.77
2023-02-15T13:33:36.725Z,10.00
2023-02-15T13:36:10.548Z,9.20
2023-02-15T13:38:58.529Z,9.50
2023-02-15T13:41:37.365Z,8.97
2023-02-15T13:44:29.650Z,8.13
2023-02-15T13:47:08.315Z,9.13
2023-02-15T13:49:50.010Z,8.93
2023-02-15T13:52:29.057Z,9.63
2023-02-15T13:55:24.659Z,8.60
2023-02-15T13:58:03.146Z,9.93
2023-02-15T14:00:51.115Z,8.87
2023-02-15T14:03:30.473Z,11.10
2023-02-15T14:06:11.955Z,11.20
2023-02-15T14:09:02.460Z,9.50
2023-02-15T14:12:07.587Z,10.47
2023-02-15T14:15:11.032Z,9.23
2023-02-15T14:17:48.999Z,8.43
2023-02-15T14:20:41.198Z,8.83
2023-02-15T14:23:45.163Z,10.83
2023-02-15T14:26:37.817Z,9.30
2023-02-15T14:29:35.900Z,11.03
2023-02-15T14:32:33.319Z,9.00
2023-02-15T14:35:05.338Z,9.00
2023-02-15T14:37:53.600Z,10.18
2023-02-15T14:41:03.130Z,10.53
2023-02-15T14:44:09.645Z,9.48
2023-02-15T14:47:00.516Z,10.27
2023-02-15T14:49:33.906Z,9.57
2023-02-15T14:52:08.091Z,10.63
2023-02-15T14:54:40.664Z,8.73
2023-02-15T14:57:13.518Z,10.40
2023-02-15T14:59:59.191Z,10.78
2023-02-15T15:02:55.542Z,9.98
2023-02-15T15:05:36.899Z,10.60
2023-02-15T15:08:08.023Z,11.20
2023-02-15T15:10:40.616Z,10.47
2023-02-15T15:13:37.252Z,9.87
2023-02-15T15:16:29.810Z,10.95
2023-02-15T15:19:01.372Z,11.03
2023-02-15T15:21:53.188Z,9.57
2023-02-15T15:24:44.569Z,9.97
2023-02-15T15:27:51.144Z,11.37
2023-02-15T15:30:24.198Z,11.27
2023-02-15T15:33:00.012Z,12.13
2023-02-15T15:35:51.593Z,12.35
2023-02-15T15:38:57.853Z,12.45
2023-02-15T15:41:51.605Z,13.20
2023-02-15T15:44:36.428Z,12.60
2023-02-15T15:47:28.678Z,11.30
2023-02-15T15:50:00.561Z,10.70
2023-02-15T15:52:32.944Z,10.98
2023-02-15T15:55:08.710Z,10.60
2023-02-15T15:57:41.356Z,10.60
2023-02-15T16:00:33.184Z,11.18
2023-02-15T16:03:03.354Z,11.03
2023-02-15T16:05:40.430Z,10.83
2023-02-15T16:08:10.275Z,10.33
2023-02-15T16:10:40.353Z,11.67
2023-02-15T16:13:11.429Z,12.37
2023-02-15T16:15:53.536Z,12.60
2023-02-15T16:18:28.400Z,11.97
2023-02-15T16:21:03.385Z,12.63
2023-02-15T16:23:42.800Z,12.47
2023-02-15T16:26:30.249Z,14.03
2023-02-15T16:29:02.416Z,12.53
2023-02-15T16:31:32.521Z,11.53
2023-02-15T16:34:03.669Z,12.70
2023-02-15T16:36:33.649Z,12.53
2023-02-15T16:39:09.510Z,15.17
2023-02-15T16:41:40.038Z,14.20
2023-02-15T16:44:12.656Z,16.73
2023-02-15T16:46:45.281Z,14.23
2023-02-15T16:49:23.556Z,12.10
2023-02-15T16:51:59.451Z,11.73
2023-02-15T16:54:32.405Z,11.20
2023-02-15T16:57:03.451Z,11.53
2023-02-15T16:59:40.569Z,10.88
2023-02-15T17:02:30.605Z,11.20
2023-02-15T17:04:49.308Z,11.77
2023-02-15T17:07:22.701Z,11.37
2023-02-15T17:09:57.685Z,14.30
2023-02-15T17:12:47.704Z,18.23
2023-02-15T17:15:32.721Z,19.82
2023-02-15T17:18:08.266Z,18.87
2023-02-15T17:20:42.024Z,15.03
2023-02-15T17:23:29.594Z,14.40
2023-02-15T17:26:01.606Z,13.77
2023-02-15T17:28:33.308Z,14.70
2023-02-15T17:31:06.790Z,13.57
2023-02-15T17:33:40.483Z,14.67
2023-02-15T17:36:20.278Z,12.20
2023-02-15T17:39:02.458Z,13.40
2023-02-15T17:41:35.207Z,12.87
2023-02-15T17:44:05.750Z,11.73
2023-02-15T17:46:37.894Z,12.97
2023-02-15T17:49:08.209Z,10.97
2023-02-15T17:51:38.402Z,9.83
2023-02-15T17:54:27.539Z,10.67
2023-02-15T17:56:59.674Z,11.90
2023-02-15T17:59:29.486Z,10.53
2023-02-15T18:02:17.196Z,14.13
2023-02-15T18:05:05.186Z,11.67
2023-02-15T18:07:52.847Z,11.65
2023-02-15T18:10:40.175Z,10.95
2023-02-15T18:13:10.016Z,11.90
2023-02-15T18:15:39.949Z,10.97
2023-02-15T18:18:12.866Z,12.50
2023-02-15T18:20:43.709Z,10.73
2023-02-15T18:23:16.407Z,11.97
2023-02-15T18:25:46.574Z,11.38
2023-02-15T18:28:16.415Z,13.30
2023-02-15T18:30:47.374Z,13.47
2023-02-15T18:33:25.820Z,13.62
2023-02-15T18:35:55.618Z,12.73
2023-02-15T18:38:25.599Z,12.83
2023-02-15T18:40:55.560Z,13.00
2023-02-15T18:43:25.750Z,13.10
2023-02-15T18:45:55.590Z,16.27
2023-02-15T18:48:25.527Z,14.13
2023-02-15T18:50:55.384Z,15.20
2023-02-15T18:53:25.012Z,14.50
2023-02-15T18:55:55.111Z,13.50
2023-02-15T18:58:25.076Z,14.25
2023-02-15T19:00:55.140Z,12.67
2023-02-15T19:03:25.113Z,17.27
2023-02-15T19:05:55.286Z,14.47
2023-02-15T19:08:25.283Z,14.70
2023-02-15T19:10:55.581Z,14.25
2023-02-15T19:13:26.414Z,16.50
2023-02-15T19:15:56.325Z,13.45
2023-02-15T19:18:26.475Z,13.10
2023-02-15T19:20:56.251Z,15.83
2023-02-15T19:23:26.961Z,13.73
2023-02-15T19:25:56.488Z,14.37
2023-02-15T19:28:33.210Z,14.35
2023-02-15T19:31:03.376Z,14.93
2023-02-15T19:33:33.185Z,14.97
2023-02-15T19:36:03.311Z,14.67
2023-02-15T19:38:38.002Z,14.87
2023-02-15T19:41:09.974Z,13.27
2023-02-15T19:43:39.772Z,14.73
2023-02-15T19:46:12.381Z,14.37
2023-02-15T19:48:42.225Z,14.13
2023-02-15T19:51:14.233Z,13.43
2023-02-15T19:53:44.428Z,12.33
2023-02-15T19:56:20.201Z,14.58
2023-02-15T19:58:50.810Z,14.87
2023-02-15T20:01:22.645Z,13.48
2023-02-15T20:03:53.450Z,15.53
2023-02-15T20:06:23.274Z,15.58
2023-02-15T20:08:54.557Z,13.58
2023-02-15T20:11:25.393Z,14.77
2023-02-15T20:13:55.031Z,15.75
2023-02-15T20:16:26.238Z,14.80
2023-02-15T20:18:56.085Z,13.60
2023-02-15T20:21:25.904Z,16.77
2023-02-15T20:23:55.932Z,17.37
2023-02-15T20:26:27.802Z,15.80
2023-02-15T20:28:57.676Z,18.37
2023-02-15T20:31:27.568Z,16.03
2023-02-15T20:33:58.566Z,17.83
2023-02-15T20:38:59.162Z,15.18
2023-02-15T20:41:39.966Z,16.07
2023-02-15T20:44:18.966Z,14.83
2023-02-15T20:46:50.188Z,15.03
2023-02-15T20:49:20.238Z,15.68
2023-02-15T20:51:49.972Z,14.90
2023-02-15T20:54:23.016Z,16.37
2023-02-15T20:56:54.414Z,16.52
2023-02-15T20:59:33.484Z,20.25
2023-02-15T21:02:20.900Z,16.37
2023-02-15T21:04:51.645Z,17.92
2023-02-15T21:07:22.507Z,19.73
2023-02-15T21:09:54.124Z,18.80
2023-02-15T21:12:23.936Z,17.97
2023-02-15T21:14:53.738Z,20.53
2023-02-15T21:17:23.562Z,18.95
2023-02-15T21:19:53.442Z,18.90
2023-02-15T21:22:23.812Z,20.23
2023-02-15T21:24:55.983Z,19.50
2023-02-15T21:27:25.833Z,20.30
2023-02-15T21:29:55.750Z,20.23
2023-02-15T21:32:25.806Z,19.87
2023-02-15T21:34:57.666Z,20.87
2023-02-15T21:40:00.134Z,18.92
2023-02-15T21:42:47.899Z,21.07
2023-02-15T21:45:37.369Z,25.72
2023-02-15T21:48:07.552Z,20.92
2023-02-15T21:50:56.141Z,20.82
2023-02-15T21:53:38.165Z,23.07
2023-02-15T21:56:09.941Z,24.27
2023-02-15T21:58:39.808Z,22.43
2023-02-15T22:01:21.640Z,25.07
2023-02-15T22:06:20.463Z,22.13
2023-02-15T22:08:50.750Z,21.65
2023-02-15T22:11:22.652Z,23.17
2023-02-15T22:13:52.652Z,22.20
2023-02-15T22:16:24.061Z,21.62
2023-02-15T22:21:22.534Z,23.03
2023-02-15T22:23:52.328Z,23.03
2023-02-15T22:26:27.858Z,22.27
2023-02-15T22:28:58.659Z,24.67
2023-02-15T22:31:29.618Z,28.20
2023-02-15T22:33:59.442Z,24.43
2023-02-15T22:36:31.472Z,24.50
2023-02-15T22:39:01.261Z,24.63
2023-02-15T22:41:32.328Z,24.40
2023-02-15T22:44:02.238Z,24.50
2023-02-15T22:46:32.062Z,25.33
2023-02-15T22:49:01.894Z,21.57
2023-02-15T22:51:31.729Z,24.70
2023-02-15T22:54:01.653Z,25.73
2023-02-15T22:56:40.283Z,26.33
2023-02-15T22:59:32.050Z,22.43
2023-02-15T23:02:03.446Z,23.10
2023-02-15T23:07:01.950Z,20.37
2023-02-15T23:09:31.794Z,24.77
2023-02-15T23:12:01.912Z,24.55
2023-02-15T23:14:34.930Z,24.07
2023-02-15T23:17:04.829Z,25.33
2023-02-15T23:19:34.821Z,23.87
2023-02-15T23:22:04.742Z,22.90
2023-02-15T23:24:34.639Z,26.13
2023-02-15T23:27:22.037Z,24.20
2023-02-15T23:29:51.849Z,23.17
2023-02-15T23:32:22.265Z,23.98
2023-02-15T23:34:52.454Z,21.27
2023-02-15T23:37:22.318Z,26.00
2023-02-15T23:40:11.078Z,24.47
2023-02-15T23:42:41.032Z,22.50
2023-02-15T23:45:13.895Z,22.00
2023-02-15T23:48:03.920Z,23.33
2023-02-15T23:50:33.410Z,25.37
2023-02-15T23:53:03.911Z,25.23
2023-02-15T23:55:39.099Z,24.27
2023-02-15T23:58:24.730Z,25.97
